Main page
METAR-TAF:

METAR-TAF

Airports :

St Mary's Airport

Isles of Scilly, England

latitude: 49-55N, longitude: 006-18W, elevation: 31 m

Current weather observation

The report was made 14 hours and 58 minutes ago, at 16:50 UTC
Wind 16 kt from the Southwest
Temperature 17°C
Humidity 77%
Pressure 1006 hPa
Visibility 10 km or more
Few clouds at a height of 1500 ft

METAR: EGHE 171650Z 23016KT 9999 FEW015 17/13 Q1006

Time: 08:48 (07:48 UTC)

Forecast

The report was made 17 hours and 44 minutes ago, at 14:04 UTC
Forecast valid from 17 at 15 UTC to 17 at 18 UTC
Wind 15 kt from the West/Southwest
Visibility 10 km or more
Few clouds at a height of 1800 ft
Probability 30% :
Temporary
from 17 at 15 UTC to 17 at 18 UTC
Visibility: 8000 m
rain showers

TAF: EGHE 171404Z 1715/1718 25015KT 9999 FEW018 PROB30 TEMPO 1715/1718 8000 SHRA

Weather observations and forecasts of more than 4000 airports (METAR and TAF reports).

The available stations are represented by yellow and red dots on the map.

Hover mouse over dot to see the name of the station.

Then click to see weather observations and forecasts.

To change the map : click on the green buttons with a black cross to zoom in, on the green button with a dash to zoom out, or on the green arrows for adjacent maps.


METAR-TAF: